Time;durP1;ratioP1;P1;durP2;ratioP2;P2;SDS_P1;SDS_P2;PMS_P1;PMS_P2;Temp;Humidity;BMP_temperature;BMP_pressure;BME280_temperature;BME280_humidity;BME280_pressure;Samples;Min_cycle;Max_cycle;Signal;HPM_P1;HPM_P2
2021/12/03 00:00:59;;;;;;;;;;;;;;;9.46;100.00;98922.06;5016222;28;20312;-77
2021/12/03 00:03:25;;;;;;;;;;;;;;;9.50;100.00;98917.34;5015962;28;19924;-77
2021/12/03 00:05:52;;;;;;;;;;;;;;;9.41;100.00;98925.22;4998620;28;19918;-77
2021/12/03 00:08:18;;;;;;;;;;;;;;;9.35;100.00;98915.66;4997769;28;20016;-77
2021/12/03 00:10:48;;;;;;;;;;;;;;;9.29;100.00;98906.09;4998531;28;20357;-77
2021/12/03 00:13:14;;;;;;;;;;;;;;;9.26;100.00;98907.66;5015904;28;19948;-76
2021/12/03 00:15:39;;;;;;;;;;;;;;;9.22;100.00;98906.84;4998469;28;20319;-77
2021/12/03 00:18:04;;;;;;;;;;;;;;;9.25;100.00;98910.81;4997938;28;20340;-77
2021/12/03 00:20:34;;;;;;;;;;;;;;;9.20;100.00;98909.19;4998182;28;20008;-77
2021/12/03 00:23:00;;;;;;;;;;;;;;;9.26;100.00;98902.09;5016417;28;19993;-77
2021/12/03 00:25:26;;;;;;;;;;;;;;;9.25;100.00;98906.06;4998393;28;19922;-78
2021/12/03 00:27:51;;;;;;;;;;;;;;;9.34;100.00;98898.19;4998224;28;19921;-77
2021/12/03 00:30:17;;;;;;;;;;;;;;;9.28;100.00;98894.19;4998044;28;20012;-77
2021/12/03 00:32:43;;;;;;;;;;;;;;;9.30;100.00;98877.16;4998365;28;19917;-78
2021/12/03 00:35:09;;;;;;;;;;;;;;;9.34;100.00;98859.34;4997977;28;20479;-77
2021/12/03 00:37:35;;;;;;;;;;;;;;;9.28;100.00;98849.00;4997873;28;20020;-77
2021/12/03 00:40:01;;;;;;;;;;;;;;;9.29;100.00;98861.69;5015235;28;20407;-77
2021/12/03 00:42:28;;;;;;;;;;;;;;;9.31;100.00;98879.53;4998584;28;19918;-77
2021/12/03 00:44:55;;;;;;;;;;;;;;;9.29;100.00;98901.34;5016565;28;19918;-77
2021/12/03 00:47:21;;;;;;;;;;;;;;;9.30;100.00;98905.69;4998728;28;19924;-77
2021/12/03 00:49:46;;;;;;;;;;;;;;;9.26;100.00;98906.84;4999776;28;19917;-77
2021/12/03 00:52:12;;;;;;;;;;;;;;;9.25;100.00;98906.06;5002111;28;19918;-77
2021/12/03 00:54:37;;;;;;;;;;;;;;;9.25;100.00;98908.84;5000024;28;20304;-77
2021/12/03 00:57:03;;;;;;;;;;;;;;;9.27;100.00;98912.03;4997923;28;19924;-77
2021/12/03 00:59:28;;;;;;;;;;;;;;;9.27;100.00;98908.44;4997893;28;19917;-77
2021/12/03 01:01:54;;;;;;;;;;;;;;;9.18;100.00;98900.47;5015201;28;19961;-77
2021/12/03 01:04:19;;;;;;;;;;;;;;;9.15;100.00;98901.22;4997820;28;19918;-77
2021/12/03 01:06:44;;;;;;;;;;;;;;;9.19;100.00;98902.84;4997630;28;19917;-77
2021/12/03 01:09:10;;;;;;;;;;;;;;;9.19;100.00;98913.16;4997749;28;19975;-77
2021/12/03 01:11:35;;;;;;;;;;;;;;;9.24;100.00;98910.03;5015094;28;19918;-77
2021/12/03 01:14:01;;;;;;;;;;;;;;;9.29;100.00;98917.19;4996849;28;19987;-77
2021/12/03 01:16:27;;;;;;;;;;;;;;;9.22;100.00;98917.94;5014975;28;19969;-77
2021/12/03 01:18:53;;;;;;;;;;;;;;;9.25;100.00;98922.72;4996867;28;19917;-77
2021/12/03 01:21:18;;;;;;;;;;;;;;;9.33;100.00;98918.81;4996509;28;19918;-77
2021/12/03 01:23:46;;;;;;;;;;;;;;;9.38;100.00;98932.34;4997296;28;19917;-77
2021/12/03 01:26:11;;;;;;;;;;;;;;;9.50;100.00;98934.00;4997812;28;19927;-77
2021/12/03 01:28:36;;;;;;;;;;;;;;;9.48;99.76;98935.56;4997498;28;19918;-77
2021/12/03 01:31:02;;;;;;;;;;;;;;;9.50;99.44;98939.56;4997184;28;19918;-77
2021/12/03 01:33:27;;;;;;;;;;;;;;;9.41;98.50;98937.09;4996855;28;20391;-77
2021/12/03 01:35:53;;;;;;;;;;;;;;;9.42;99.02;98944.25;4997370;28;20021;-76
2021/12/03 01:38:18;;;;;;;;;;;;;;;9.40;98.98;98949.41;4997273;28;20384;-77
2021/12/03 01:40:44;;;;;;;;;;;;;;;9.50;98.80;98938.78;4996759;28;19923;-77
2021/12/03 01:43:14;;;;;;;;;;;;;;;9.49;99.23;98951.06;4997064;28;19917;-77
2021/12/03 01:45:40;;;;;;;;;;;;;;;9.48;99.20;98955.00;4981599;28;19925;-77
2021/12/03 01:48:06;;;;;;;;;;;;;;;9.54;99.46;98961.81;4996749;28;19918;-76
2021/12/03 01:50:34;;;;;;;;;;;;;;;9.50;99.03;98955.44;5014281;28;19918;-76
2021/12/03 01:52:59;;;;;;;;;;;;;;;9.49;99.62;98962.16;4980654;28;20292;-76
2021/12/03 01:55:24;;;;;;;;;;;;;;;9.62;99.75;98957.88;4996696;28;19918;-77
2021/12/03 01:57:50;;;;;;;;;;;;;;;9.52;99.53;98953.06;4996823;28;19925;-77
2021/12/03 02:00:37;;;;;;;;;;;;;;;9.49;99.45;98945.50;4996645;28;19918;-77
2021/12/03 02:03:05;;;;;;;;;;;;;;;9.52;97.86;98953.06;4996618;28;19918;-76
2021/12/03 02:05:30;;;;;;;;;;;;;;;9.45;98.52;98959.34;5013925;28;19918;-77
2021/12/03 02:07:55;;;;;;;;;;;;;;;9.48;98.78;98957.78;5013852;28;19924;-76
2021/12/03 02:10:21;;;;;;;;;;;;;;;9.57;97.85;98956.25;4996884;28;19932;-76
2021/12/03 02:12:47;;;;;;;;;;;;;;;9.59;98.43;98958.69;5013972;28;19918;-76
2021/12/03 02:15:13;;;;;;;;;;;;;;;9.58;98.66;98952.31;4996990;28;20379;-76
2021/12/03 02:17:38;;;;;;;;;;;;;;;9.54;98.54;98953.47;4996454;28;20410;-75
2021/12/03 02:20:06;;;;;;;;;;;;;;;9.41;98.52;98936.31;4996542;28;19924;-77
2021/12/03 02:22:31;;;;;;;;;;;;;;;9.28;98.22;98921.94;4996985;28;20320;-75
2021/12/03 02:24:56;;;;;;;;;;;;;;;9.21;98.13;98909.97;4997028;28;19924;-77
2021/12/03 02:27:22;;;;;;;;;;;;;;;9.13;97.99;98909.94;4996520;28;20288;-77
2021/12/03 02:29:47;;;;;;;;;;;;;;;9.19;97.72;98907.59;4996731;28;20012;-77
2021/12/03 02:32:12;;;;;;;;;;;;;;;9.22;97.77;98923.50;4999499;28;20257;-77
2021/12/03 02:34:38;;;;;;;;;;;;;;;9.16;97.84;98930.56;5000316;28;19917;-78
2021/12/03 02:37:04;;;;;;;;;;;;;;;9.19;98.38;98927.03;5001295;28;19925;-77
2021/12/03 02:39:30;;;;;;;;;;;;;;;9.23;99.38;98936.19;5018240;28;19929;-77
2021/12/03 02:41:55;;;;;;;;;;;;;;;9.41;98.79;98939.88;5000025;28;19922;-77
2021/12/03 02:44:20;;;;;;;;;;;;;;;9.43;98.61;98945.88;5000471;28;19918;-76
2021/12/03 02:46:46;;;;;;;;;;;;;;;9.38;98.09;98946.22;4999915;28;20303;-77
2021/12/03 02:49:15;;;;;;;;;;;;;;;9.24;97.68;98946.09;5000262;28;19917;-77
2021/12/03 02:51:41;;;;;;;;;;;;;;;9.17;97.73;98946.84;5017551;28;19918;-77
2021/12/03 02:54:07;;;;;;;;;;;;;;;9.14;98.22;98950.38;4999598;28;20008;-77
2021/12/03 02:56:33;;;;;;;;;;;;;;;9.10;98.58;98954.28;4999235;28;20027;-77
2021/12/03 02:58:58;;;;;;;;;;;;;;;9.14;98.43;98953.16;5000121;28;19926;-77
2021/12/03 03:01:23;;;;;;;;;;;;;;;9.32;97.71;98947.78;4999619;28;20360;-77
2021/12/03 03:03:52;;;;;;;;;;;;;;;9.43;97.08;98937.53;5000031;28;19922;-77
2021/12/03 03:06:17;;;;;;;;;;;;;;;9.43;97.17;98932.00;4999676;28;20016;-77
2021/12/03 03:08:44;;;;;;;;;;;;;;;9.27;98.05;98948.13;5017346;28;20019;-77
2021/12/03 03:11:10;;;;;;;;;;;;;;;9.28;99.59;98949.72;4999289;28;19927;-77
2021/12/03 03:13:36;;;;;;;;;;;;;;;9.28;100.00;98958.03;4999173;28;19921;-77
2021/12/03 03:16:02;;;;;;;;;;;;;;;9.36;100.00;98967.22;4999741;28;19917;-77
2021/12/03 03:18:28;;;;;;;;;;;;;;;9.37;100.00;98968.78;4999889;28;19918;-77
2021/12/03 03:20:56;;;;;;;;;;;;;;;9.38;100.00;98968.44;4999710;28;19949;-77
2021/12/03 03:23:22;;;;;;;;;;;;;;;9.33;100.00;98960.47;5001316;28;19925;-76
2021/12/03 03:25:48;;;;;;;;;;;;;;;9.48;98.99;98946.66;5001578;28;19918;-76
2021/12/03 03:28:15;;;;;;;;;;;;;;;9.52;98.93;98944.72;5000370;28;19955;-76
2021/12/03 03:30:43;;;;;;;;;;;;;;;9.40;97.16;98949.41;4998596;28;19918;-76
2021/12/03 03:33:08;;;;;;;;;;;;;;;9.28;98.64;98954.47;4999411;28;19918;-76
2021/12/03 03:35:34;;;;;;;;;;;;;;;9.32;99.49;98960.81;5016784;28;19917;-76
2021/12/03 03:38:00;;;;;;;;;;;;;;;9.28;100.00;98960.81;4998712;28;19921;-76
2021/12/03 03:40:25;;;;;;;;;;;;;;;9.24;100.00;98948.88;5016115;28;19972;-77
2021/12/03 03:42:50;;;;;;;;;;;;;;;9.30;100.00;98946.53;4998349;28;19917;-77
2021/12/03 03:45:19;;;;;;;;;;;;;;;9.25;100.00;98944.91;4999025;28;19940;-77
2021/12/03 03:47:45;;;;;;;;;;;;;;;9.29;100.00;98948.53;4998898;28;19921;-77
2021/12/03 03:50:11;;;;;;;;;;;;;;;9.27;100.00;98941.75;4998587;28;19917;-78
2021/12/03 03:52:39;;;;;;;;;;;;;;;9.26;100.00;98942.94;4999106;28;19940;-77
2021/12/03 03:55:05;;;;;;;;;;;;;;;9.21;100.00;98941.31;4998146;28;19924;-77
2021/12/03 03:57:30;;;;;;;;;;;;;;;9.22;100.00;98945.69;4998365;28;19917;-77
2021/12/03 03:59:56;;;;;;;;;;;;;;;9.22;100.00;98942.91;4998406;28;19972;-77
2021/12/03 04:02:25;;;;;;;;;;;;;;;9.25;100.00;98950.47;4998623;28;19921;-77
2021/12/03 04:04:50;;;;;;;;;;;;;;;9.25;100.00;98949.66;4998656;28;19917;-77
2021/12/03 04:07:16;;;;;;;;;;;;;;;9.25;100.00;98953.25;5015920;28;19925;-77
2021/12/03 04:09:41;;;;;;;;;;;;;;;9.27;100.00;98942.56;4999037;28;19925;-77
2021/12/03 04:12:07;;;;;;;;;;;;;;;9.27;100.00;98939.78;4998045;28;19925;-77
2021/12/03 04:14:32;;;;;;;;;;;;;;;9.24;100.00;98946.09;4982879;28;20012;-77
2021/12/03 04:16:57;;;;;;;;;;;;;;;9.25;100.00;98950.47;4978824;28;19918;-77
2021/12/03 04:19:23;;;;;;;;;;;;;;;9.29;100.00;98951.28;4978657;28;19918;-77
2021/12/03 04:21:48;;;;;;;;;;;;;;;9.28;100.00;98963.59;4978577;28;19922;-77
2021/12/03 04:24:14;;;;;;;;;;;;;;;9.29;100.00;98969.94;4978837;28;20013;-77
2021/12/03 04:26:39;;;;;;;;;;;;;;;9.31;100.00;98967.56;4978461;28;20336;-77
2021/12/03 04:29:04;;;;;;;;;;;;;;;9.28;100.00;98971.91;4978449;28;19917;-77
2021/12/03 04:31:30;;;;;;;;;;;;;;;9.28;100.00;98966.38;4995825;28;19956;-77
2021/12/03 04:33:55;;;;;;;;;;;;;;;9.30;100.00;98964.00;4978405;28;19918;-77
2021/12/03 04:36:21;;;;;;;;;;;;;;;9.28;100.00;98969.13;4977945;28;19918;-77
2021/12/03 04:38:46;;;;;;;;;;;;;;;9.28;100.00;98966.38;4978555;28;19918;-77
2021/12/03 04:41:12;;;;;;;;;;;;;;;9.22;100.00;98967.91;4978751;28;20368;-77
2021/12/03 04:43:37;;;;;;;;;;;;;;;9.22;100.00;98973.44;4978718;28;19921;-77
2021/12/03 04:46:03;;;;;;;;;;;;;;;9.24;100.00;98971.06;4978670;28;19922;-77
2021/12/03 04:48:28;;;;;;;;;;;;;;;9.26;100.00;98965.94;4978103;28;20330;-77
2021/12/03 04:50:53;;;;;;;;;;;;;;;9.29;100.00;98970.72;4970059;28;19918;-77
2021/12/03 04:53:19;;;;;;;;;;;;;;;9.30;100.00;98969.53;4978267;28;19922;-77
2021/12/03 04:55:44;;;;;;;;;;;;;;;9.33;100.00;98974.34;4977881;28;19917;-77
2021/12/03 04:58:10;;;;;;;;;;;;;;;9.28;99.07;98966.38;4978452;28;19945;-77
2021/12/03 05:00:40;;;;;;;;;;;;;;;9.23;99.55;98968.69;4995036;28;20004;-77
2021/12/03 05:03:07;;;;;;;;;;;;;;;9.25;99.26;98967.13;4978214;28;19979;-77
2021/12/03 05:05:34;;;;;;;;;;;;;;;9.25;99.61;98967.13;4978412;28;20369;-77
2021/12/03 05:08:07;;;;;;;;;;;;;;;9.19;98.74;98971.44;4977782;28;19922;-76
2021/12/03 05:10:33;;;;;;;;;;;;;;;9.23;98.64;98979.78;4977946;28;19957;-77
2021/12/03 05:13:06;;;;;;;;;;;;;;;9.25;98.87;98985.75;4977779;28;19921;-76
2021/12/03 05:15:32;;;;;;;;;;;;;;;9.25;98.91;98983.78;4994487;28;20433;-77
2021/12/03 05:17:58;;;;;;;;;;;;;;;9.27;98.03;98981.44;4997297;28;20020;-76
2021/12/03 05:20:23;;;;;;;;;;;;;;;9.28;98.47;98977.47;4997006;28;20373;-76
2021/12/03 05:22:49;;;;;;;;;;;;;;;9.31;98.18;98982.22;5014925;28;19956;-76
2021/12/03 05:25:14;;;;;;;;;;;;;;;9.28;97.83;98991.34;4997335;28;20357;-76
2021/12/03 05:27:43;;;;;;;;;;;;;;;9.27;97.34;98992.53;4997577;28;20321;-76
2021/12/03 05:30:09;;;;;;;;;;;;;;;9.28;98.00;98998.88;4997123;28;20262;-76
2021/12/03 05:32:34;;;;;;;;;;;;;;;9.28;98.28;98999.66;5015013;28;19925;-76
2021/12/03 05:34:59;;;;;;;;;;;;;;;9.48;96.82;99003.03;5014799;28;19918;-76
2021/12/03 05:37:25;;;;;;;;;;;;;;;9.37;92.80;98996.56;4996885;28;19918;-76
2021/12/03 05:39:50;;;;;;;;;;;;;;;9.38;93.50;99014.84;5014739;28;20004;-76
2021/12/03 05:42:15;;;;;;;;;;;;;;;9.39;93.79;99011.66;4996978;28;19925;-75
2021/12/03 05:44:41;;;;;;;;;;;;;;;9.35;94.45;99013.59;4997047;28;19960;-77
2021/12/03 05:47:06;;;;;;;;;;;;;;;9.34;94.60;99025.88;4997522;28;19918;-77
2021/12/03 05:49:32;;;;;;;;;;;;;;;9.48;94.57;99029.97;4997463;28;20004;-77
2021/12/03 05:51:57;;;;;;;;;;;;;;;9.41;94.58;99025.94;4997701;28;19918;-77
2021/12/03 05:54:23;;;;;;;;;;;;;;;9.44;95.35;99033.53;4998197;28;19925;-77
2021/12/03 05:56:48;;;;;;;;;;;;;;;9.42;94.82;99030.31;4998497;28;20419;-77
2021/12/03 05:59:14;;;;;;;;;;;;;;;9.37;95.17;99030.66;4999501;28;19917;-77
2021/12/03 06:01:39;;;;;;;;;;;;;;;9.37;95.25;99036.22;5002225;28;19967;-77
2021/12/03 06:04:05;;;;;;;;;;;;;;;9.33;95.41;99045.72;5000468;28;20292;-77
2021/12/03 06:06:30;;;;;;;;;;;;;;;9.34;95.81;99053.66;4998659;28;19923;-76
2021/12/03 06:08:58;;;;;;;;;;;;;;;9.33;96.26;99052.06;5000511;28;19940;-76
2021/12/03 06:11:23;;;;;;;;;;;;;;;9.34;96.65;99059.19;5000516;28;19918;-77
2021/12/03 06:13:49;;;;;;;;;;;;;;;9.34;96.53;99070.31;5000374;28;19931;-76
2021/12/03 06:16:14;;;;;;;;;;;;;;;9.32;96.89;99071.84;5000621;28;19917;-77
2021/12/03 06:18:42;;;;;;;;;;;;;;;9.29;97.06;99076.19;5000776;28;19918;-76
2021/12/03 06:21:09;;;;;;;;;;;;;;;9.31;97.22;99084.13;5001007;28;19917;-77
2021/12/03 06:23:34;;;;;;;;;;;;;;;9.37;97.45;99086.19;5000449;28;19917;-76
2021/12/03 06:26:00;;;;;;;;;;;;;;;9.33;97.44;99090.94;5000221;28;20415;-77
2021/12/03 06:28:27;;;;;;;;;;;;;;;9.40;96.34;99096.53;5018007;28;19924;-77
2021/12/03 06:30:53;;;;;;;;;;;;;;;9.38;95.89;99096.13;5017911;28;19925;-77
2021/12/03 06:33:19;;;;;;;;;;;;;;;9.40;96.39;99099.31;5000328;28;19917;-77
2021/12/03 06:35:45;;;;;;;;;;;;;;;9.36;96.54;99106.81;5000722;28;19969;-77
2021/12/03 06:38:10;;;;;;;;;;;;;;;9.37;97.61;99107.59;4983993;28;19928;-77
2021/12/03 06:40:36;;;;;;;;;;;;;;;9.36;97.63;99106.81;4999903;28;19917;-77
2021/12/03 06:43:01;;;;;;;;;;;;;;;9.37;98.29;99110.38;5000497;28;19917;-77
2021/12/03 06:45:26;;;;;;;;;;;;;;;9.37;98.27;99122.28;4999868;28;19970;-77
2021/12/03 06:47:52;;;;;;;;;;;;;;;9.37;98.39;99119.50;5000322;28;19924;-77
2021/12/03 06:50:18;;;;;;;;;;;;;;;9.36;98.02;99117.91;4999980;28;20368;-76
2021/12/03 06:52:47;;;;;;;;;;;;;;;9.36;97.65;99122.66;5000782;28;19917;-77
2021/12/03 06:55:16;;;;;;;;;;;;;;;9.38;98.20;99126.66;4985179;28;19956;-77
2021/12/03 06:57:44;;;;;;;;;;;;;;;9.37;97.42;99130.59;4999840;28;20020;-77
2021/12/03 07:00:10;;;;;;;;;;;;;;;9.38;98.11;99131.44;5000676;28;19921;-77
2021/12/03 07:02:35;;;;;;;;;;;;;;;9.39;97.68;99133.81;5017889;28;19924;-77
2021/12/03 07:05:04;;;;;;;;;;;;;;;9.37;98.33;99133.38;5000106;28;19918;-77
2021/12/03 07:07:29;;;;;;;;;;;;;;;9.41;97.94;99136.19;5000322;28;20008;-76
2021/12/03 07:09:56;;;;;;;;;;;;;;;9.38;97.74;99137.78;5000479;28;20332;-75
2021/12/03 07:12:21;;;;;;;;;;;;;;;9.37;97.93;99136.16;5000842;28;19918;-75
2021/12/03 07:14:46;;;;;;;;;;;;;;;9.41;98.05;99150.88;5000206;28;20400;-76
2021/12/03 07:17:14;;;;;;;;;;;;;;;9.40;97.77;99149.28;5000220;28;20291;-75
2021/12/03 07:19:40;;;;;;;;;;;;;;;9.40;97.96;99149.28;5000117;28;19926;-77
2021/12/03 07:22:05;;;;;;;;;;;;;;;9.40;97.68;99154.03;5000953;28;20033;-75
2021/12/03 07:24:31;;;;;;;;;;;;;;;9.44;98.08;99147.34;5000084;28;19918;-76
2021/12/03 07:26:56;;;;;;;;;;;;;;;9.44;97.97;99147.34;5000596;28;19922;-77
2021/12/03 07:29:22;;;;;;;;;;;;;;;9.46;98.10;99146.97;5000023;28;19980;-77
2021/12/03 07:31:50;;;;;;;;;;;;;;;9.53;98.00;99151.78;5000090;28;20007;-77
2021/12/03 07:34:16;;;;;;;;;;;;;;;9.55;97.34;99149.44;4999515;28;19925;-76
2021/12/03 07:36:41;;;;;;;;;;;;;;;9.58;95.73;99145.88;5016665;28;20364;-76
2021/12/03 07:39:07;;;;;;;;;;;;;;;9.64;94.96;99155.47;4999116;28;19967;-76
2021/12/03 07:41:35;;;;;;;;;;;;;;;9.65;93.60;99151.53;4999522;28;20349;-76
2021/12/03 07:44:01;;;;;;;;;;;;;;;9.57;94.88;99153.44;4999333;28;19917;-76
2021/12/03 07:46:26;;;;;;;;;;;;;;;9.63;95.00;99148.31;4998742;28;20340;-76
2021/12/03 07:48:51;;;;;;;;;;;;;;;9.53;94.41;99152.59;5016122;28;19925;-78
2021/12/03 07:51:17;;;;;;;;;;;;;;;9.53;95.38;99154.56;4998936;28;19921;-76
2021/12/03 07:53:43;;;;;;;;;;;;;;;9.56;95.06;99153.81;4998789;28;19918;-78
2021/12/03 07:56:09;;;;;;;;;;;;;;;9.56;95.37;99153.81;5016415;28;19921;-77
2021/12/03 07:58:35;;;;;;;;;;;;;;;9.56;95.96;99156.59;4998417;28;19917;-76
2021/12/03 08:01:00;;;;;;;;;;;;;;;9.56;95.20;99156.59;4998455;28;19918;-76
2021/12/03 08:03:25;;;;;;;;;;;;;;;9.56;95.76;99159.38;4998345;28;19917;-77
2021/12/03 08:05:51;;;;;;;;;;;;;;;9.62;95.89;99168.94;4998303;28;19917;-77
2021/12/03 08:08:23;;;;;;;;;;;;;;;9.65;95.99;99168.19;4999166;28;19964;-77
2021/12/03 08:10:49;;;;;;;;;;;;;;;9.70;96.24;99173.41;4998212;28;19951;-77
2021/12/03 08:13:15;;;;;;;;;;;;;;;9.72;96.33;99182.16;4994075;28;20017;-77
2021/12/03 08:15:40;;;;;;;;;;;;;;;9.68;96.70;99184.09;4979220;28;19918;-75
2021/12/03 08:18:06;;;;;;;;;;;;;;;9.68;97.63;99187.66;4978525;28;19970;-75
2021/12/03 08:20:32;;;;;;;;;;;;;;;9.74;96.95;99187.31;4978491;28;19918;-73
2021/12/03 08:22:57;;;;;;;;;;;;;;;9.74;96.71;99182.56;4978512;28;19917;-74
2021/12/03 08:25:22;;;;;;;;;;;;;;;9.83;98.18;99174.72;4978593;28;19964;-79
2021/12/03 08:27:48;;;;;;;;;;;;;;;9.90;98.22;99180.34;4978939;28;19922;-79
2021/12/03 08:30:13;;;;;;;;;;;;;;;10.05;98.12;99183.25;4979178;28;20264;-79
2021/12/03 08:32:40;;;;;;;;;;;;;;;10.03;97.65;99177.28;4979216;28;20411;-79
2021/12/03 08:35:06;;;;;;;;;;;;;;;10.04;97.15;99185.25;4997520;28;19918;-79
2021/12/03 08:37:31;;;;;;;;;;;;;;;10.11;97.82;99167.81;4980841;28;19945;-79
2021/12/03 08:39:57;;;;;;;;;;;;;;;10.16;98.15;99175.81;5000341;28;19985;-79
2021/12/03 08:42:22;;;;;;;;;;;;;;;10.22;97.57;99177.03;4984165;28;19918;-79
2021/12/03 08:44:48;;;;;;;;;;;;;;;10.30;97.45;99175.97;4998226;28;20006;-80
2021/12/03 08:47:13;;;;;;;;;;;;;;;10.34;96.74;99171.22;4978589;28;19957;-79
2021/12/03 08:49:47;;;;;;;;;;;;;;;10.36;97.06;99173.63;4978824;28;20337;-79
2021/12/03 08:54:51;;;;;;;;;;;;;;;10.40;96.57;99169.69;4995468;28;20012;-79
2021/12/03 08:57:18;;;;;;;;;;;;;;;10.44;96.08;99170.50;4977927;28;20365;-79
2021/12/03 08:59:44;;;;;;;;;;;;;;;10.46;95.67;99162.56;4978086;28;20278;-79
2021/12/03 09:02:10;;;;;;;;;;;;;;;10.39;93.85;99172.84;4977936;28;19922;-79
2021/12/03 09:04:35;;;;;;;;;;;;;;;10.44;93.12;99176.06;4995345;28;19925;-80
2021/12/03 09:07:01;;;;;;;;;;;;;;;10.46;91.52;99184.03;4977819;28;19926;-79
2021/12/03 09:09:27;;;;;;;;;;;;;;;10.35;88.66;99177.59;4977758;28;19918;-79
2021/12/03 09:11:52;;;;;;;;;;;;;;;10.36;91.79;99185.53;4977763;28;20281;-79
2021/12/03 09:14:27;;;;;;;;;;;;;;;10.33;93.50;99186.28;4989469;28;19921;-79
2021/12/03 09:17:08;;;;;;;;;;;;;;;10.31;95.14;99183.13;4997463;28;19922;-80
2021/12/03 09:19:38;;;;;;;;;;;;;;;10.32;94.77;99184.69;4983948;28;20361;-79
2021/12/03 09:22:04;;;;;;;;;;;;;;;10.44;94.64;99192.75;4997578;28;20023;-79
2021/12/03 09:24:35;;;;;;;;;;;;;;;10.54;94.28;99184.84;4996964;28;19960;-79
2021/12/03 09:27:01;;;;;;;;;;;;;;;10.72;93.75;99180.22;4997510;28;19917;-79
2021/12/03 09:29:31;;;;;;;;;;;;;;;10.87;93.00;99181.91;4996986;28;19918;-80
2021/12/03 09:31:58;;;;;;;;;;;;;;;10.80;90.26;99189.41;4997170;28;19944;-79
2021/12/03 09:34:24;;;;;;;;;;;;;;;10.80;91.85;99187.41;5015092;28;20435;-79
2021/12/03 09:36:50;;;;;;;;;;;;;;;10.82;93.22;99181.47;5015006;28;19921;-79
2021/12/03 09:39:19;;;;;;;;;;;;;;;10.79;93.90;99188.59;4996975;28;19917;-79
2021/12/03 09:41:45;;;;;;;;;;;;;;;10.74;94.99;99177.84;4996220;28;19923;-79
2021/12/03 09:44:11;;;;;;;;;;;;;;;10.77;94.78;99188.22;4997339;28;20011;-80
2021/12/03 09:46:36;;;;;;;;;;;;;;;10.84;94.63;99182.69;4996818;28;19987;-80
2021/12/03 09:51:31;;;;;;;;;;;;;;;11.00;93.06;99196.28;5014456;28;19918;-79
2021/12/03 09:56:24;;;;;;;;;;;;;;;11.05;92.75;99186.78;5014371;28;19964;-79
2021/12/03 09:59:30;;;;;;;;;;;;;;;11.21;91.93;99181.66;5014534;28;19921;-79
2021/12/03 10:01:41;;;;;;;;;;;;;;;11.07;91.03;99185.19;5012909;28;19918;-79
2021/12/03 10:04:40;;;;;;;;;;;;;;;11.06;92.95;99191.13;5014657;28;19918;-79
2021/12/03 10:50:09;;;;;;;;;;;;;;;11.31;89.80;99155.84;4953230;29;19950;-79
2021/12/03 11:01:33;;;;;;;;;;;;;;;11.71;90.77;99145.59;5017722;28;20300;-79
2021/12/03 11:42:30;;;;;;;;;;;;;;;11.28;84.93;99110.09;4989701;28;20430;-79
2021/12/03 12:46:53;;;;;;;;;;;;;;;10.10;82.14;99110.63;5015385;28;20016;-79
2021/12/03 14:10:14;;;;;;;;;;;;;;;10.39;87.50;99173.66;5015164;28;19971;-80
2021/12/03 14:44:41;;;;;;;;;;;;;;;10.59;80.54;99215.09;5018920;28;19918;-80
2021/12/03 14:53:19;;;;;;;;;;;;;;;10.49;77.05;99214.66;5017832;28;19968;-77
2021/12/03 14:55:36;;;;;;;;;;;;;;;10.46;77.39;99218.19;5016496;28;20250;-77
2021/12/03 14:58:10;;;;;;;;;;;;;;;10.41;76.53;99220.53;4999756;28;20348;-77
2021/12/03 15:08:06;;;;;;;;;;;;;;;10.37;75.13;99231.63;5017635;28;20372;-78
2021/12/03 15:10:54;;;;;;;;;;;;;;;10.31;73.69;99222.03;5017655;28;19918;-78
2021/12/03 15:32:36;;;;;;;;;;;;;;;10.11;73.95;99226.97;4980443;28;19917;-78
2021/12/03 15:37:55;;;;;;;;;;;;;;;10.09;73.61;99234.91;5016546;28;20364;-77
2021/12/03 16:03:32;;;;;;;;;;;;;;;9.95;71.81;99274.47;5017989;28;20468;-76
2021/12/03 16:04:46;;;;;;;;;;;;;;;9.89;74.14;99272.41;5000027;28;20011;-76
2021/12/03 16:44:53;;;;;;;;;;;;;;;10.08;68.05;99318.69;5015572;28;19984;-78
2021/12/03 16:52:39;;;;;;;;;;;;;;;10.07;67.06;99339.34;5015733;28;19924;-78
2021/12/03 16:55:04;;;;;;;;;;;;;;;10.09;68.15;99339.75;4997941;28;19964;-78
2021/12/03 16:57:35;;;;;;;;;;;;;;;10.09;68.22;99342.50;5014820;28;19921;-78
2021/12/03 17:00:14;;;;;;;;;;;;;;;9.95;69.13;99337.59;4997453;28;19968;-78
2021/12/03 17:02:46;;;;;;;;;;;;;;;10.01;68.64;99344.41;4997343;28;19922;-76
2021/12/03 17:48:17;;;;;;;;;;;;;;;9.97;65.93;99401.94;5014563;28;19945;-78
2021/12/03 17:58:29;;;;;;;;;;;;;;;9.94;66.64;99403.47;5014895;28;19924;-78
2021/12/03 18:01:49;;;;;;;;;;;;;;;9.87;67.28;99405.38;5014494;28;19924;-78
2021/12/03 18:03:56;;;;;;;;;;;;;;;9.81;66.66;99402.13;5007795;28;19976;-78
2021/12/03 18:17:26;;;;;;;;;;;;;;;9.62;65.72;99427.25;5018571;28;19918;-78
2021/12/03 18:45:50;;;;;;;;;;;;;;;10.02;64.29;99459.16;5018516;28;20343;-78
2021/12/03 18:55:11;;;;;;;;;;;;;;;9.93;63.29;99485.25;5017996;28;20017;-78
2021/12/03 18:57:43;;;;;;;;;;;;;;;9.87;64.06;99489.53;5017262;28;20364;-78
2021/12/03 19:00:10;;;;;;;;;;;;;;;9.87;64.55;99495.09;4999667;28;19921;-78
2021/12/03 19:02:39;;;;;;;;;;;;;;;10.03;63.12;99500.47;4999635;28;19917;-78
2021/12/03 19:05:20;;;;;;;;;;;;;;;10.04;64.02;99509.63;5017488;28;20023;-78
2021/12/03 19:07:57;;;;;;;;;;;;;;;9.95;64.84;99505.13;5017126;28;19988;-78
2021/12/03 19:10:25;;;;;;;;;;;;;;;9.95;63.87;99510.66;4999487;28;19917;-78
2021/12/03 19:12:59;;;;;;;;;;;;;;;9.94;62.89;99528.53;4999304;28;19918;-78
2021/12/03 19:15:25;;;;;;;;;;;;;;;10.03;62.78;99528.25;4999319;28;19917;-78
2021/12/03 19:17:51;;;;;;;;;;;;;;;10.09;62.56;99521.19;5017375;28;19936;-78
2021/12/03 19:20:21;;;;;;;;;;;;;;;10.11;62.49;99529.97;5016667;28;19917;-78
2021/12/03 19:22:47;;;;;;;;;;;;;;;10.17;62.18;99530.44;4999192;28;19963;-75
2021/12/03 19:25:13;;;;;;;;;;;;;;;10.19;61.41;99530.88;5016605;28;19918;-75
2021/12/03 19:27:38;;;;;;;;;;;;;;;10.23;61.49;99531.72;5016890;28;20415;-75
2021/12/03 19:30:04;;;;;;;;;;;;;;;10.24;61.38;99527.81;4999019;28;20020;-75
2021/12/03 19:32:31;;;;;;;;;;;;;;;10.19;60.84;99530.88;5016902;28;19948;-75
2021/12/03 19:34:57;;;;;;;;;;;;;;;10.36;59.31;99527.56;5016258;28;19917;-75
2021/12/03 19:37:24;;;;;;;;;;;;;;;10.33;60.68;99542.19;4998837;28;19925;-75
2021/12/03 19:39:50;;;;;;;;;;;;;;;10.37;59.90;99553.38;4999625;28;20273;-76
2021/12/03 19:42:20;;;;;;;;;;;;;;;10.31;60.80;99554.88;4999129;28;19917;-75
2021/12/03 19:44:55;;;;;;;;;;;;;;;10.31;60.49;99555.69;4998409;28;19917;-75
2021/12/03 19:47:31;;;;;;;;;;;;;;;10.27;61.22;99549.28;4998797;28;19922;-75
2021/12/03 19:50:14;;;;;;;;;;;;;;;10.25;60.85;99561.97;5016246;28;20364;-75
2021/12/03 19:52:48;;;;;;;;;;;;;;;10.22;60.89;99552.34;4998652;28;19924;-75
2021/12/03 19:55:13;;;;;;;;;;;;;;;10.15;61.72;99558.63;4998907;28;19918;-76
2021/12/03 19:57:38;;;;;;;;;;;;;;;10.19;61.13;99542.00;4999088;28;20258;-75
2021/12/03 20:00:06;;;;;;;;;;;;;;;10.17;60.86;99541.56;4998507;28;19979;-75
2021/12/03 20:02:31;;;;;;;;;;;;;;;10.17;61.53;99545.16;4998933;28;19968;-74
2021/12/03 20:04:58;;;;;;;;;;;;;;;10.17;61.73;99547.09;4998946;28;20352;-74
2021/12/03 20:07:23;;;;;;;;;;;;;;;10.12;62.08;99562.16;4998363;28;20368;-75
2021/12/03 20:12:24;;;;;;;;;;;;;;;10.17;61.64;99563.78;5016120;28;19964;-75
2021/12/03 20:14:50;;;;;;;;;;;;;;;10.16;61.11;99570.53;4998308;28;20432;-75
2021/12/03 20:17:36;;;;;;;;;;;;;;;10.13;62.05;99579.63;4997808;28;19918;-74
2021/12/03 20:20:03;;;;;;;;;;;;;;;10.11;61.76;99573.63;5015738;28;20012;-75
2021/12/03 20:22:41;;;;;;;;;;;;;;;10.07;61.56;99578.34;4998055;28;19964;-75
2021/12/03 20:27:52;;;;;;;;;;;;;;;10.08;61.94;99591.06;5015854;28;19939;-75
2021/12/03 20:33:04;;;;;;;;;;;;;;;10.06;61.80;99599.75;5016049;28;19917;-75
2021/12/03 20:38:16;;;;;;;;;;;;;;;10.06;61.73;99598.97;5015761;28;19940;-75
2021/12/03 20:40:42;;;;;;;;;;;;;;;10.01;61.94;99591.75;5015059;28;20377;-75
2021/12/03 20:43:51;;;;;;;;;;;;;;;10.00;61.80;99603.25;5015029;28;19941;-75
2021/12/03 20:46:27;;;;;;;;;;;;;;;9.93;62.62;99598.38;5012118;28;19917;-75
2021/12/03 21:10:15;;;;;;;;;;;;;;;9.85;62.28;99591.88;4986445;28;19918;-75
2021/12/03 21:12:48;;;;;;;;;;;;;;;9.83;61.65;99594.25;4997846;28;20292;-75